sensor_id;sensor_type;location;lat;lon;timestamp;pressure;altitude;pressure_sealevel;temperature;humidity
79791;BME280;69278;52.220;5.172;2023-05-21T00:02:18;102016.84;;;16.85;55.37
79791;BME280;69278;52.220;5.172;2023-05-21T00:04:45;102015.31;;;16.83;55.46
79791;BME280;69278;52.220;5.172;2023-05-21T00:07:12;102008.28;;;16.82;55.54
79791;BME280;69278;52.220;5.172;2023-05-21T00:09:40;101995.66;;;16.66;55.91
79791;BME280;69278;52.220;5.172;2023-05-21T00:12:07;102010.72;;;16.75;56.27
79791;BME280;69278;52.220;5.172;2023-05-21T00:14:34;101980.72;;;16.55;56.29
79791;BME280;69278;52.220;5.172;2023-05-21T00:17:01;101980.72;;;16.55;56.57
79791;BME280;69278;52.220;5.172;2023-05-21T00:19:27;102006.69;;;16.71;56.35
79791;BME280;69278;52.220;5.172;2023-05-21T00:21:54;101981.13;;;16.61;56.54
79791;BME280;69278;52.220;5.172;2023-05-21T00:24:21;102003.41;;;16.77;56.45
79791;BME280;69278;52.220;5.172;2023-05-21T00:26:47;102002.28;;;16.80;56.71
79791;BME280;69278;52.220;5.172;2023-05-21T00:29:14;102005.25;;;16.77;56.89
79791;BME280;69278;52.220;5.172;2023-05-21T00:31:40;101996.19;;;16.70;56.93
79791;BME280;69278;52.220;5.172;2023-05-21T00:34:07;102004.16;;;16.70;57.11
79791;BME280;69278;52.220;5.172;2023-05-21T00:36:33;101836.41;;;15.72;57.07
79791;BME280;69278;52.220;5.172;2023-05-21T00:39:00;101994.06;;;16.73;56.85
79791;BME280;69278;52.220;5.172;2023-05-21T00:41:27;102003.88;;;16.73;57.04
79791;BME280;69278;52.220;5.172;2023-05-21T00:43:55;101993.53;;;16.70;57.04
79791;BME280;69278;52.220;5.172;2023-05-21T00:46:22;101980.09;;;16.62;57.17
79791;BME280;69278;52.220;5.172;2023-05-21T00:48:49;101975.09;;;16.58;57.12
79791;BME280;69278;52.220;5.172;2023-05-21T00:51:16;101983.72;;;16.70;57.38
79791;BME280;69278;52.220;5.172;2023-05-21T00:53:44;101978.75;;;16.57;57.51
79791;BME280;69278;52.220;5.172;2023-05-21T00:56:12;101971.75;;;16.56;57.45
79791;BME280;69278;52.220;5.172;2023-05-21T00:58:39;101993.81;;;16.67;57.64
79791;BME280;69278;52.220;5.172;2023-05-21T01:01:06;101958.88;;;16.52;57.62
79791;BME280;69278;52.220;5.172;2023-05-21T01:03:39;101981.50;;;16.66;57.54
79791;BME280;69278;52.220;5.172;2023-05-21T01:06:07;101981.78;;;16.63;57.68
79791;BME280;69278;52.220;5.172;2023-05-21T01:08:35;101982.75;;;16.62;57.56
79791;BME280;69278;52.220;5.172;2023-05-21T01:11:03;101964.47;;;16.58;57.64
79791;BME280;69278;52.220;5.172;2023-05-21T01:13:32;101981.78;;;16.63;58.10
79791;BME280;69278;52.220;5.172;2023-05-21T01:16:00;101974.66;;;16.63;57.79
79791;BME280;69278;52.220;5.172;2023-05-21T01:18:28;101973.81;;;16.63;57.87
79791;BME280;69278;52.220;5.172;2023-05-21T01:20:55;101961.13;;;16.56;58.12
79791;BME280;69278;52.220;5.172;2023-05-21T01:23:21;101962.25;;;16.54;58.11
79791;BME280;69278;52.220;5.172;2023-05-21T01:25:48;101946.00;;;16.47;58.29
79791;BME280;69278;52.220;5.172;2023-05-21T01:28:14;101950.91;;;16.52;58.11
79791;BME280;69278;52.220;5.172;2023-05-21T01:30:42;101961.25;;;16.55;58.16
79791;BME280;69278;52.220;5.172;2023-05-21T01:33:19;101956.78;;;16.55;58.34
79791;BME280;69278;52.220;5.172;2023-05-21T01:35:53;101960.72;;;16.51;58.33
79791;BME280;69278;52.220;5.172;2023-05-21T01:39:00;101965.72;;;16.54;58.44
79791;BME280;69278;52.220;5.172;2023-05-21T01:41:33;101957.63;;;16.46;58.60
79791;BME280;69278;52.220;5.172;2023-05-21T01:44:04;101946.88;;;16.38;58.33
79791;BME280;69278;52.220;5.172;2023-05-21T01:46:33;101969.53;;;16.52;58.59
79791;BME280;69278;52.220;5.172;2023-05-21T01:49:02;101970.38;;;16.52;58.48
79791;BME280;69278;52.220;5.172;2023-05-21T01:51:30;101960.59;;;16.43;58.75
79791;BME280;69278;52.220;5.172;2023-05-21T01:53:57;101966.88;;;16.42;58.68
79791;BME280;69278;52.220;5.172;2023-05-21T01:56:23;101947.50;;;16.32;58.91
79791;BME280;69278;52.220;5.172;2023-05-21T01:58:51;101941.03;;;16.35;58.72
79791;BME280;69278;52.220;5.172;2023-05-21T02:01:17;101924.75;;;16.20;58.69
79791;BME280;69278;52.220;5.172;2023-05-21T02:03:45;101951.91;;;16.41;58.82
79791;BME280;69278;52.220;5.172;2023-05-21T02:06:12;101956.41;;;16.41;58.72
79791;BME280;69278;52.220;5.172;2023-05-21T02:08:38;101953.63;;;16.33;58.97
79791;BME280;69278;52.220;5.172;2023-05-21T02:11:05;101945.53;;;16.34;58.59
79791;BME280;69278;52.220;5.172;2023-05-21T02:13:32;101955.31;;;16.34;58.91
79791;BME280;69278;52.220;5.172;2023-05-21T02:15:59;101954.19;;;16.36;58.77
79791;BME280;69278;52.220;5.172;2023-05-21T02:18:26;101959.22;;;16.39;58.78
79791;BME280;69278;52.220;5.172;2023-05-21T02:20:54;101957.53;;;16.38;58.69
79791;BME280;69278;52.220;5.172;2023-05-21T02:23:21;101956.69;;;16.38;58.86
79791;BME280;69278;52.220;5.172;2023-05-21T02:25:47;101962.84;;;16.38;58.65
79791;BME280;69278;52.220;5.172;2023-05-21T02:28:14;101964.13;;;16.34;58.83
79791;BME280;69278;52.220;5.172;2023-05-21T02:30:41;101956.16;;;16.34;58.78
79791;BME280;69278;52.220;5.172;2023-05-21T02:33:07;101945.69;;;16.23;58.85
79791;BME280;69278;52.220;5.172;2023-05-21T02:35:34;101957.28;;;16.32;58.95
79791;BME280;69278;52.220;5.172;2023-05-21T02:38:01;101958.41;;;16.29;58.95
79791;BME280;69278;52.220;5.172;2023-05-21T02:40:28;101958.69;;;16.26;58.98
79791;BME280;69278;52.220;5.172;2023-05-21T02:42:54;101950.03;;;16.24;59.04
79791;BME280;69278;52.220;5.172;2023-05-21T02:45:21;101951.16;;;16.22;59.19
79791;BME280;69278;52.220;5.172;2023-05-21T02:47:47;101910.81;;;15.99;59.04
79791;BME280;69278;52.220;5.172;2023-05-21T02:50:14;101959.38;;;16.28;59.14
79791;BME280;69278;52.220;5.172;2023-05-21T02:52:40;101937.63;;;16.15;59.33
79791;BME280;69278;52.220;5.172;2023-05-21T02:55:08;101959.81;;;16.24;59.56
79791;BME280;69278;52.220;5.172;2023-05-21T02:57:34;101957.16;;;16.24;59.28
79791;BME280;69278;52.220;5.172;2023-05-21T03:00:01;101957.16;;;16.24;59.38
79791;BME280;69278;52.220;5.172;2023-05-21T03:02:28;101935.25;;;16.12;59.68
79791;BME280;69278;52.220;5.172;2023-05-21T03:04:55;101956.75;;;16.19;59.78
79791;BME280;69278;52.220;5.172;2023-05-21T03:07:22;101952.56;;;16.16;60.08
79791;BME280;69278;52.220;5.172;2023-05-21T03:09:49;101956.91;;;16.17;60.04
79791;BME280;69278;52.220;5.172;2023-05-21T03:12:16;101952.16;;;16.11;60.20
79791;BME280;69278;52.220;5.172;2023-05-21T03:14:42;101948.53;;;16.12;60.31
79791;BME280;69278;52.220;5.172;2023-05-21T03:17:09;101953.97;;;16.11;60.41
79791;BME280;69278;52.220;5.172;2023-05-21T03:19:40;101944.50;;;16.08;60.43
79791;BME280;69278;52.220;5.172;2023-05-21T03:22:07;101943.78;;;16.06;60.66
79791;BME280;69278;52.220;5.172;2023-05-21T03:24:34;101921.75;;;15.86;60.89
79791;BME280;69278;52.220;5.172;2023-05-21T03:27:02;101942.25;;;16.04;60.85
79791;BME280;69278;52.220;5.172;2023-05-21T03:29:31;101936.41;;;16.00;60.94
79791;BME280;69278;52.220;5.172;2023-05-21T03:31:58;101925.91;;;15.99;61.02
79791;BME280;69278;52.220;5.172;2023-05-21T03:34:24;101936.94;;;16.04;61.08
79791;BME280;69278;52.220;5.172;2023-05-21T03:36:51;101935.28;;;16.03;61.13
79791;BME280;69278;52.220;5.172;2023-05-21T03:39:17;101939.59;;;16.04;61.26
79791;BME280;69278;52.220;5.172;2023-05-21T03:41:44;101931.38;;;15.97;61.40
79791;BME280;69278;52.220;5.172;2023-05-21T03:44:10;101943.81;;;15.97;61.60
79791;BME280;69278;52.220;5.172;2023-05-21T03:46:37;101933.34;;;15.95;61.78
79791;BME280;69278;52.220;5.172;2023-05-21T03:49:03;101933.34;;;15.95;61.83
79791;BME280;69278;52.220;5.172;2023-05-21T03:51:30;101918.84;;;15.80;61.94
79791;BME280;69278;52.220;5.172;2023-05-21T03:53:57;101933.50;;;15.93;61.89
79791;BME280;69278;52.220;5.172;2023-05-21T03:56:24;101931.25;;;15.89;62.01
79791;BME280;69278;52.220;5.172;2023-05-21T03:58:51;101926.78;;;15.89;62.14
79791;BME280;69278;52.220;5.172;2023-05-21T04:01:18;101932.25;;;15.88;62.28
79791;BME280;69278;52.220;5.172;2023-05-21T04:03:44;101927.91;;;15.87;62.36
79791;BME280;69278;52.220;5.172;2023-05-21T04:06:11;101925.69;;;15.82;62.52
79791;BME280;69278;52.220;5.172;2023-05-21T04:08:38;101931.41;;;15.87;62.53
79791;BME280;69278;52.220;5.172;2023-05-21T04:11:04;101920.53;;;15.81;62.66
79791;BME280;69278;52.220;5.172;2023-05-21T04:13:31;101936.72;;;15.87;62.80
79791;BME280;69278;52.220;5.172;2023-05-21T04:15:57;101928.94;;;15.76;63.11
79791;BME280;69278;52.220;5.172;2023-05-21T04:18:25;101930.31;;;15.80;62.75
79791;BME280;69278;52.220;5.172;2023-05-21T04:20:52;101930.47;;;15.79;63.21
79791;BME280;69278;52.220;5.172;2023-05-21T04:23:19;101933.81;;;15.81;62.94
79791;BME280;69278;52.220;5.172;2023-05-21T04:25:48;101921.41;;;15.72;63.15
79791;BME280;69278;52.220;5.172;2023-05-21T04:28:16;101928.38;;;15.73;63.19
79791;BME280;69278;52.220;5.172;2023-05-21T04:30:48;101927.09;;;15.77;63.45
79791;BME280;69278;52.220;5.172;2023-05-21T04:33:15;101933.25;;;15.77;63.55
79791;BME280;69278;52.220;5.172;2023-05-21T04:35:45;101934.38;;;15.75;63.73
79791;BME280;69278;52.220;5.172;2023-05-21T04:38:16;101920.84;;;15.68;63.66
79791;BME280;69278;52.220;5.172;2023-05-21T04:40:50;101932.72;;;15.74;63.87
79791;BME280;69278;52.220;5.172;2023-05-21T04:43:18;101937.19;;;15.73;63.91
79791;BME280;69278;52.220;5.172;2023-05-21T04:45:51;101938.16;;;15.72;64.18
79791;BME280;69278;52.220;5.172;2023-05-21T04:48:20;101941.81;;;15.71;64.51
79791;BME280;69278;52.220;5.172;2023-05-21T04:50:50;101944.31;;;15.73;64.23
79791;BME280;69278;52.220;5.172;2023-05-21T04:53:17;101941.50;;;15.74;64.31
79791;BME280;69278;52.220;5.172;2023-05-21T04:55:43;101943.63;;;15.71;64.54
79791;BME280;69278;52.220;5.172;2023-05-21T04:58:10;101923.34;;;15.60;64.51
79791;BME280;69278;52.220;5.172;2023-05-21T05:00:37;101942.34;;;15.75;64.74
79791;BME280;69278;52.220;5.172;2023-05-21T05:03:04;101941.38;;;15.76;64.56
79791;BME280;69278;52.220;5.172;2023-05-21T05:05:31;101940.94;;;15.80;64.75
79791;BME280;69278;52.220;5.172;2023-05-21T05:07:57;101938.72;;;15.76;65.11
79791;BME280;69278;52.220;5.172;2023-05-21T05:10:23;101917.63;;;15.65;65.13
79791;BME280;69278;52.220;5.172;2023-05-21T05:12:50;101949.06;;;15.79;65.29
79791;BME280;69278;52.220;5.172;2023-05-21T05:15:16;101941.78;;;15.81;65.10
79791;BME280;69278;52.220;5.172;2023-05-21T05:17:43;101942.47;;;15.83;65.16
79791;BME280;69278;52.220;5.172;2023-05-21T05:20:10;101938.69;;;15.85;65.27
79791;BME280;69278;52.220;5.172;2023-05-21T05:22:36;101946.25;;;15.80;65.48
79791;BME280;69278;52.220;5.172;2023-05-21T05:25:03;101918.03;;;15.60;65.58
79791;BME280;69278;52.220;5.172;2023-05-21T05:27:30;101940.00;;;15.72;65.96
79791;BME280;69278;52.220;5.172;2023-05-21T05:29:56;101931.47;;;15.68;65.88
79791;BME280;69278;52.220;5.172;2023-05-21T05:32:23;101934.81;;;15.70;65.90
79791;BME280;69278;52.220;5.172;2023-05-21T05:34:50;101942.66;;;15.72;66.33
79791;BME280;69278;52.220;5.172;2023-05-21T05:37:16;101930.50;;;15.69;65.95
79791;BME280;69278;52.220;5.172;2023-05-21T05:39:43;101942.22;;;15.76;65.99
79791;BME280;69278;52.220;5.172;2023-05-21T05:42:09;101942.06;;;15.78;66.11
79791;BME280;69278;52.220;5.172;2023-05-21T05:44:36;101916.66;;;15.66;66.04
79791;BME280;69278;52.220;5.172;2023-05-21T05:47:02;101927.25;;;15.75;66.06
79791;BME280;69278;52.220;5.172;2023-05-21T05:49:29;101935.19;;;15.85;66.01
79791;BME280;69278;52.220;5.172;2023-05-21T05:51:55;101933.50;;;15.93;65.76
79791;BME280;69278;52.220;5.172;2023-05-21T05:54:22;101926.94;;;15.88;65.58
79791;BME280;69278;52.220;5.172;2023-05-21T05:56:48;101932.78;;;15.91;65.54
79791;BME280;69278;52.220;5.172;2023-05-21T05:59:14;101930.84;;;15.93;65.16
79791;BME280;69278;52.220;5.172;2023-05-21T06:01:41;101932.78;;;15.91;65.49
79791;BME280;69278;52.220;5.172;2023-05-21T06:04:08;101930.84;;;15.93;65.23
79791;BME280;69278;52.220;5.172;2023-05-21T06:06:34;101916.31;;;15.88;65.33
79791;BME280;69278;52.220;5.172;2023-05-21T06:09:01;101921.59;;;15.98;65.08
79791;BME280;69278;52.220;5.172;2023-05-21T06:11:28;101906.78;;;15.95;65.01
79791;BME280;69278;52.220;5.172;2023-05-21T06:13:54;101921.72;;;16.06;64.88
79791;BME280;69278;52.220;5.172;2023-05-21T06:16:21;101925.91;;;16.08;64.92
79791;BME280;69278;52.220;5.172;2023-05-21T06:18:48;101921.56;;;16.07;64.90
79791;BME280;69278;52.220;5.172;2023-05-21T06:21:15;101914.44;;;16.08;64.67
79791;BME280;69278;52.220;5.172;2023-05-21T06:23:41;101901.88;;;16.00;64.67
79791;BME280;69278;52.220;5.172;2023-05-21T06:26:08;101911.50;;;16.01;64.71
79791;BME280;69278;52.220;5.172;2023-05-21T06:28:34;101918.59;;;16.20;64.47
79791;BME280;69278;52.220;5.172;2023-05-21T06:31:01;101908.47;;;16.23;64.12
79791;BME280;69278;52.220;5.172;2023-05-21T06:33:27;101911.25;;;16.31;63.96
79791;BME280;69278;52.220;5.172;2023-05-21T06:35:54;101922.13;;;16.38;63.46
79791;BME280;69278;52.220;5.172;2023-05-21T06:38:21;101918.44;;;16.48;63.52
79791;BME280;69278;52.220;5.172;2023-05-21T06:40:47;101895.94;;;16.43;63.09
79791;BME280;69278;52.220;5.172;2023-05-21T06:43:14;101922.59;;;16.61;62.92
79791;BME280;69278;52.220;5.172;2023-05-21T06:45:41;101921.00;;;16.68;62.88
79791;BME280;69278;52.220;5.172;2023-05-21T06:48:07;101888.19;;;16.49;62.63
79791;BME280;69278;52.220;5.172;2023-05-21T06:50:34;101933.56;;;16.75;62.60
79791;BME280;69278;52.220;5.172;2023-05-21T06:53:00;101918.13;;;16.79;62.37
79791;BME280;69278;52.220;5.172;2023-05-21T06:55:27;101921.50;;;16.81;62.25
79791;BME280;69278;52.220;5.172;2023-05-21T06:57:53;101917.25;;;16.88;62.36
79791;BME280;69278;52.220;5.172;2023-05-21T07:00:20;101920.81;;;16.96;61.89
79791;BME280;69278;52.220;5.172;2023-05-21T07:02:46;101918.63;;;17.09;61.69
79791;BME280;69278;52.220;5.172;2023-05-21T07:05:13;101919.22;;;17.21;61.44
79791;BME280;69278;52.220;5.172;2023-05-21T07:07:39;101912.47;;;17.27;61.06
79791;BME280;69278;52.220;5.172;2023-05-21T07:10:06;101908.50;;;17.31;60.83
79791;BME280;69278;52.220;5.172;2023-05-21T07:12:33;101916.63;;;17.29;60.96
79791;BME280;69278;52.220;5.172;2023-05-21T07:15:00;101910.19;;;17.32;61.21
79791;BME280;69278;52.220;5.172;2023-05-21T07:17:26;101908.50;;;17.31;61.03
79791;BME280;69278;52.220;5.172;2023-05-21T07:19:53;101903.84;;;17.33;61.24
79791;BME280;69278;52.220;5.172;2023-05-21T07:22:19;101898.03;;;17.37;60.90
79791;BME280;69278;52.220;5.172;2023-05-21T07:24:46;101905.47;;;17.51;60.86
79791;BME280;69278;52.220;5.172;2023-05-21T07:27:12;101911.56;;;17.61;60.34
79791;BME280;69278;52.220;5.172;2023-05-21T07:29:51;101920.63;;;17.68;60.29
79791;BME280;69278;52.220;5.172;2023-05-21T07:32:17;101920.94;;;17.65;60.03
79791;BME280;69278;52.220;5.172;2023-05-21T07:34:44;101914.63;;;17.66;60.08
79791;BME280;69278;52.220;5.172;2023-05-21T07:37:10;101911.09;;;17.66;59.86
79791;BME280;69278;52.220;5.172;2023-05-21T07:39:37;101904.44;;;17.62;59.83
79791;BME280;69278;52.220;5.172;2023-05-21T07:42:03;101904.59;;;17.60;60.09
79791;BME280;69278;52.220;5.172;2023-05-21T07:44:30;101903.81;;;17.68;60.08
79791;BME280;69278;52.220;5.172;2023-05-21T07:46:57;101904.88;;;17.75;59.95
79791;BME280;69278;52.220;5.172;2023-05-21T07:49:23;101904.75;;;17.84;59.52
79791;BME280;69278;52.220;5.172;2023-05-21T07:51:50;101902.47;;;17.98;59.42
79791;BME280;69278;52.220;5.172;2023-05-21T07:54:16;101900.34;;;18.01;59.10
79791;BME280;69278;52.220;5.172;2023-05-21T07:56:43;101902.53;;;18.06;58.90
79791;BME280;69278;52.220;5.172;2023-05-21T07:59:09;101906.88;;;18.07;58.22
79791;BME280;69278;52.220;5.172;2023-05-21T08:01:39;101863.16;;;17.92;58.56
79791;BME280;69278;52.220;5.172;2023-05-21T08:04:06;101905.47;;;18.28;58.18
79791;BME280;69278;52.220;5.172;2023-05-21T08:06:33;101907.00;;;18.39;57.76
79791;BME280;69278;52.220;5.172;2023-05-21T08:09:00;101905.34;;;18.38;57.33
79791;BME280;69278;52.220;5.172;2023-05-21T08:11:29;101829.53;;;17.99;57.69
79791;BME280;69278;52.220;5.172;2023-05-21T08:13:56;101882.09;;;18.48;57.35
79791;BME280;69278;52.220;5.172;2023-05-21T08:16:22;101892.44;;;18.59;57.05
79791;BME280;69278;52.220;5.172;2023-05-21T08:18:49;101895.59;;;18.63;56.77
79791;BME280;69278;52.220;5.172;2023-05-21T08:21:16;101890.44;;;18.61;56.54
79791;BME280;69278;52.220;5.172;2023-05-21T08:23:43;101887.28;;;18.58;56.62
79791;BME280;69278;52.220;5.172;2023-05-21T08:26:09;101875.09;;;18.63;56.34
79791;BME280;69278;52.220;5.172;2023-05-21T08:28:39;101893.50;;;18.90;56.39
79791;BME280;69278;52.220;5.172;2023-05-21T08:31:05;101870.16;;;18.84;55.82
79791;BME280;69278;52.220;5.172;2023-05-21T08:33:34;101870.78;;;18.78;55.73
79791;BME280;69278;52.220;5.172;2023-05-21T08:36:06;101881.16;;;18.81;55.92
79791;BME280;69278;52.220;5.172;2023-05-21T08:38:33;101894.16;;;18.92;55.69
79791;BME280;69278;52.220;5.172;2023-05-21T08:40:59;101887.97;;;18.92;55.70
79791;BME280;69278;52.220;5.172;2023-05-21T08:43:27;101902.84;;;18.94;55.78
79791;BME280;69278;52.220;5.172;2023-05-21T08:45:55;101894.34;;;18.91;55.89
79791;BME280;69278;52.220;5.172;2023-05-21T08:48:22;101891.81;;;18.89;55.86
79791;BME280;69278;52.220;5.172;2023-05-21T08:50:51;101873.13;;;18.73;55.93
79791;BME280;69278;52.220;5.172;2023-05-21T08:53:17;101885.66;;;18.97;55.79
79791;BME280;69278;52.220;5.172;2023-05-21T08:55:54;101894.00;;;19.02;55.57
79791;BME280;69278;52.220;5.172;2023-05-21T08:58:21;101883.81;;;18.89;55.62
79791;BME280;69278;52.220;5.172;2023-05-21T09:00:48;101892.84;;;18.96;55.73
79791;BME280;69278;52.220;5.172;2023-05-21T09:03:15;101865.47;;;18.78;55.92
79791;BME280;69278;52.220;5.172;2023-05-21T09:05:43;101882.00;;;18.98;56.09
79791;BME280;69278;52.220;5.172;2023-05-21T09:08:16;101894.19;;;19.00;55.36
79791;BME280;69278;52.220;5.172;2023-05-21T09:10:50;101896.19;;;18.98;55.86
79791;BME280;69278;52.220;5.172;2023-05-21T09:13:18;101894.22;;;19.08;55.91
79791;BME280;69278;52.220;5.172;2023-05-21T09:15:46;101878.19;;;19.08;55.72
79791;BME280;69278;52.220;5.172;2023-05-21T09:18:13;101856.97;;;18.91;55.91
79791;BME280;69278;52.220;5.172;2023-05-21T09:20:40;101870.34;;;19.15;56.78
79791;BME280;69278;52.220;5.172;2023-05-21T09:23:07;101872.16;;;18.98;57.17
79791;BME280;69278;52.220;5.172;2023-05-21T09:25:46;101888.88;;;19.08;57.46
79791;BME280;69278;52.220;5.172;2023-05-21T09:28:14;101870.63;;;19.04;57.65
79791;BME280;69278;52.220;5.172;2023-05-21T09:30:49;101896.03;;;19.24;57.24
79791;BME280;69278;52.220;5.172;2023-05-21T09:33:25;101877.16;;;19.34;57.27
79791;BME280;69278;52.220;5.172;2023-05-21T09:35:51;101852.97;;;19.27;57.10
79791;BME280;69278;52.220;5.172;2023-05-21T09:38:21;101882.19;;;19.53;56.78
79791;BME280;69278;52.220;5.172;2023-05-21T09:40:48;101887.34;;;19.62;56.46
79791;BME280;69278;52.220;5.172;2023-05-21T09:43:14;101875.00;;;19.61;55.84
79791;BME280;69278;52.220;5.172;2023-05-21T09:45:52;101874.31;;;19.67;55.22
79791;BME280;69278;52.220;5.172;2023-05-21T09:48:38;101865.13;;;19.70;56.02
79791;BME280;69278;52.220;5.172;2023-05-21T09:51:16;101872.47;;;19.76;55.87
79791;BME280;69278;52.220;5.172;2023-05-21T09:53:53;101866.75;;;19.87;55.97
79791;BME280;69278;52.220;5.172;2023-05-21T09:56:21;101840.72;;;19.81;55.33
79791;BME280;69278;52.220;5.172;2023-05-21T09:58:57;101859.91;;;19.84;55.38
79791;BME280;69278;52.220;5.172;2023-05-21T10:01:26;101864.97;;;19.71;55.86
79791;BME280;69278;52.220;5.172;2023-05-21T10:03:57;101856.78;;;19.65;56.06
79791;BME280;69278;52.220;5.172;2023-05-21T10:06:26;101831.41;;;19.53;56.07
79791;BME280;69278;52.220;5.172;2023-05-21T10:08:55;101847.91;;;19.72;56.09
79791;BME280;69278;52.220;5.172;2023-05-21T10:11:25;101851.41;;;19.81;55.87
79791;BME280;69278;52.220;5.172;2023-05-21T10:14:08;101851.56;;;19.79;55.87
79791;BME280;69278;52.220;5.172;2023-05-21T10:16:36;101853.44;;;19.71;56.15
79791;BME280;69278;52.220;5.172;2023-05-21T10:19:02;101809.56;;;19.41;56.26
79791;BME280;69278;52.220;5.172;2023-05-21T10:21:36;101840.91;;;19.71;56.06
79791;BME280;69278;52.220;5.172;2023-05-21T10:24:05;101820.50;;;19.70;55.70
79791;BME280;69278;52.220;5.172;2023-05-21T10:26:33;101863.72;;;19.90;55.88
79791;BME280;69278;52.220;5.172;2023-05-21T10:29:01;101839.00;;;19.88;55.82
79791;BME280;69278;52.220;5.172;2023-05-21T10:31:28;101853.56;;;19.85;55.45
79791;BME280;69278;52.220;5.172;2023-05-21T10:33:54;101830.03;;;19.73;55.55
79791;BME280;69278;52.220;5.172;2023-05-21T10:36:23;101833.47;;;19.90;55.27
79791;BME280;69278;52.220;5.172;2023-05-21T10:38:49;101849.94;;;20.09;55.12
79791;BME280;69278;52.220;5.172;2023-05-21T10:41:17;101793.19;;;19.91;55.03
79791;BME280;69278;52.220;5.172;2023-05-21T10:43:54;101838.66;;;20.30;54.62
79791;BME280;69278;52.220;5.172;2023-05-21T10:46:41;101838.09;;;20.42;54.21
79791;BME280;69278;52.220;5.172;2023-05-21T10:49:34;101783.88;;;20.18;54.13
79791;BME280;69278;52.220;5.172;2023-05-21T10:53:12;101816.97;;;20.56;53.75
79791;BME280;69278;52.220;5.172;2023-05-21T10:55:34;101806.06;;;20.57;53.72
79791;BME280;69278;52.220;5.172;2023-05-21T11:00:41;101837.31;;;20.87;53.20
79791;BME280;69278;52.220;5.172;2023-05-21T11:03:10;101839.16;;;20.87;53.04
79791;BME280;69278;52.220;5.172;2023-05-21T11:05:51;101827.44;;;20.88;53.13
79791;BME280;69278;52.220;5.172;2023-05-21T11:08:25;101830.97;;;21.03;53.38
79791;BME280;69278;52.220;5.172;2023-05-21T11:10:53;101830.38;;;20.93;52.76
79791;BME280;69278;52.220;5.172;2023-05-21T11:13:20;101823.47;;;20.98;53.05
79791;BME280;69278;52.220;5.172;2023-05-21T11:21:13;101821.75;;;21.28;52.68
79791;BME280;69278;52.220;5.172;2023-05-21T11:26:24;101819.03;;;21.51;51.75
79791;BME280;69278;52.220;5.172;2023-05-21T11:31:31;101803.03;;;21.57;51.15
79791;BME280;69278;52.220;5.172;2023-05-21T11:36:43;101800.97;;;21.59;51.62
79791;BME280;69278;52.220;5.172;2023-05-21T11:39:13;101797.66;;;21.72;51.51
79791;BME280;69278;52.220;5.172;2023-05-21T11:41:51;101794.06;;;21.65;50.91
79791;BME280;69278;52.220;5.172;2023-05-21T11:44:18;101773.25;;;21.52;51.10
79791;BME280;69278;52.220;5.172;2023-05-21T11:46:47;101797.66;;;21.72;50.51
79791;BME280;69278;52.220;5.172;2023-05-21T11:49:14;101779.53;;;21.59;50.82
79791;BME280;69278;52.220;5.172;2023-05-21T11:51:41;101801.91;;;21.96;50.48
79791;BME280;69278;52.220;5.172;2023-05-21T11:54:09;101778.88;;;22.01;50.08
79791;BME280;69278;52.220;5.172;2023-05-21T11:56:35;101800.88;;;22.11;49.98
79791;BME280;69278;52.220;5.172;2023-05-21T11:59:13;101781.94;;;21.98;49.47
79791;BME280;69278;52.220;5.172;2023-05-21T12:01:42;101796.06;;;22.07;49.86
79791;BME280;69278;52.220;5.172;2023-05-21T12:04:09;101763.88;;;22.07;50.04
79791;BME280;69278;52.220;5.172;2023-05-21T12:06:38;101780.75;;;22.22;48.91
79791;BME280;69278;52.220;5.172;2023-05-21T12:09:09;101730.03;;;22.27;49.22
79791;BME280;69278;52.220;5.172;2023-05-21T12:11:39;101763.09;;;22.48;49.07
79791;BME280;69278;52.220;5.172;2023-05-21T12:14:07;101738.56;;;22.30;49.32
79791;BME280;69278;52.220;5.172;2023-05-21T12:16:34;101760.13;;;22.43;49.31
79791;BME280;69278;52.220;5.172;2023-05-21T12:19:02;101772.72;;;22.43;48.86
79791;BME280;69278;52.220;5.172;2023-05-21T12:21:29;101763.44;;;22.24;49.26
79791;BME280;69278;52.220;5.172;2023-05-21T12:23:56;101782.13;;;21.97;49.78
79791;BME280;69278;52.220;5.172;2023-05-21T12:26:24;101760.28;;;21.70;50.04
79791;BME280;69278;52.220;5.172;2023-05-21T12:28:54;101751.97;;;21.65;50.37
79791;BME280;69278;52.220;5.172;2023-05-21T12:31:22;101735.50;;;21.68;50.19
79791;BME280;69278;52.220;5.172;2023-05-21T12:33:52;101747.06;;;21.83;50.11
79791;BME280;69278;52.220;5.172;2023-05-21T12:36:25;101752.19;;;22.14;49.45
79791;BME280;69278;52.220;5.172;2023-05-21T12:38:52;101742.81;;;22.25;48.87
79791;BME280;69278;52.220;5.172;2023-05-21T12:41:20;101745.25;;;22.20;49.47
79791;BME280;69278;52.220;5.172;2023-05-21T12:43:48;101731.81;;;21.99;49.89
79791;BME280;69278;52.220;5.172;2023-05-21T12:46:15;101713.28;;;22.04;49.61
79791;BME280;69278;52.220;5.172;2023-05-21T12:48:54;101755.22;;;22.26;50.00
79791;BME280;69278;52.220;5.172;2023-05-21T12:51:23;101730.97;;;21.98;50.03
79791;BME280;69278;52.220;5.172;2023-05-21T12:53:50;101766.31;;;22.02;50.24
79791;BME280;69278;52.220;5.172;2023-05-21T12:56:16;101688.91;;;21.34;50.97
79791;BME280;69278;52.220;5.172;2023-05-21T12:58:48;101744.75;;;21.80;50.90
79791;BME280;69278;52.220;5.172;2023-05-21T13:01:15;101761.53;;;22.18;50.17
79791;BME280;69278;52.220;5.172;2023-05-21T13:03:41;101742.97;;;22.38;49.50
79791;BME280;69278;52.220;5.172;2023-05-21T13:06:09;101744.31;;;22.70;48.79
79791;BME280;69278;52.220;5.172;2023-05-21T13:08:36;101730.91;;;22.55;49.02
79791;BME280;69278;52.220;5.172;2023-05-21T13:11:03;101711.31;;;22.55;48.70
79791;BME280;69278;52.220;5.172;2023-05-21T13:13:30;101739.97;;;22.96;48.57